sensor_id;sensor_type;location;lat;lon;timestamp;pressure;altitude;pressure_sealevel;temperature;humidity
50430;BME280;36359;41.556;-8.418;2022-11-11T00:01:13;100882.97;;;14.40;100.00
50430;BME280;36359;41.556;-8.418;2022-11-11T00:04:03;100882.00;;;14.49;100.00
50430;BME280;36359;41.556;-8.418;2022-11-11T00:06:48;100876.03;;;14.45;100.00
50430;BME280;36359;41.556;-8.418;2022-11-11T00:09:32;100877.53;;;14.40;100.00
50430;BME280;36359;41.556;-8.418;2022-11-11T00:12:18;100868.44;;;14.57;100.00
50430;BME280;36359;41.556;-8.418;2022-11-11T00:15:03;100874.94;;;14.38;100.00
50430;BME280;36359;41.556;-8.418;2022-11-11T00:17:48;100868.53;;;14.47;100.00
50430;BME280;36359;41.556;-8.418;2022-11-11T00:20:51;100868.09;;;14.34;100.00
50430;BME280;36359;41.556;-8.418;2022-11-11T00:23:58;100869.13;;;14.33;100.00
50430;BME280;36359;41.556;-8.418;2022-11-11T00:27:01;100862.75;;;14.24;100.00
50430;BME280;36359;41.556;-8.418;2022-11-11T00:29:46;100864.53;;;14.34;100.00
50430;BME280;36359;41.556;-8.418;2022-11-11T00:32:31;100863.34;;;14.36;100.00
50430;BME280;36359;41.556;-8.418;2022-11-11T00:35:16;100858.84;;;14.27;100.00
50430;BME280;36359;41.556;-8.418;2022-11-11T00:38:19;100862.44;;;14.27;100.00
50430;BME280;36359;41.556;-8.418;2022-11-11T00:41:23;100864.47;;;14.25;100.00
50430;BME280;36359;41.556;-8.418;2022-11-11T00:44:10;100869.22;;;14.23;100.00
50430;BME280;36359;41.556;-8.418;2022-11-11T00:46:54;100862.91;;;14.23;100.00
50430;BME280;36359;41.556;-8.418;2022-11-11T00:49:57;100862.75;;;14.24;100.00
50430;BME280;36359;41.556;-8.418;2022-11-11T00:53:02;100864.63;;;14.24;100.00
50430;BME280;36359;41.556;-8.418;2022-11-11T00:55:46;100852.97;;;14.14;100.00
50430;BME280;36359;41.556;-8.418;2022-11-11T00:58:31;100862.38;;;14.19;100.00
50430;BME280;36359;41.556;-8.418;2022-11-11T01:01:16;100852.09;;;14.13;100.00
50430;BME280;36359;41.556;-8.418;2022-11-11T01:04:00;100845.94;;;14.11;100.00
50430;BME280;36359;41.556;-8.418;2022-11-11T01:06:45;100854.69;;;13.97;100.00
50430;BME280;36359;41.556;-8.418;2022-11-11T01:09:29;100856.66;;;14.04;100.00
50430;BME280;36359;41.556;-8.418;2022-11-11T01:12:14;100857.09;;;14.18;100.00
50430;BME280;36359;41.556;-8.418;2022-11-11T01:14:58;100853.06;;;14.04;100.00
50430;BME280;36359;41.556;-8.418;2022-11-11T01:17:42;100850.00;;;14.07;100.00
50430;BME280;36359;41.556;-8.418;2022-11-11T01:20:27;100846.97;;;14.10;100.00
50430;BME280;36359;41.556;-8.418;2022-11-11T01:23:13;100849.91;;;14.17;100.00
50430;BME280;36359;41.556;-8.418;2022-11-11T01:26:24;100846.25;;;14.08;100.00
50430;BME280;36359;41.556;-8.418;2022-11-11T01:29:08;100845.28;;;14.17;100.00
50430;BME280;36359;41.556;-8.418;2022-11-11T01:31:52;100830.91;;;14.07;100.00
50430;BME280;36359;41.556;-8.418;2022-11-11T01:34:37;100824.22;;;14.27;100.00
50430;BME280;36359;41.556;-8.418;2022-11-11T01:37:22;100833.97;;;14.64;100.00
50430;BME280;36359;41.556;-8.418;2022-11-11T01:40:07;100826.56;;;14.91;100.00
50430;BME280;36359;41.556;-8.418;2022-11-11T01:42:53;100825.56;;;14.92;100.00
50430;BME280;36359;41.556;-8.418;2022-11-11T01:45:59;100824.41;;;14.60;100.00
50430;BME280;36359;41.556;-8.418;2022-11-11T01:48:47;100833.16;;;14.72;100.00
50430;BME280;36359;41.556;-8.418;2022-11-11T01:51:56;100823.63;;;14.50;100.00
50430;BME280;36359;41.556;-8.418;2022-11-11T01:54:42;100816.47;;;14.49;100.00
50430;BME280;36359;41.556;-8.418;2022-11-11T02:00:25;100809.66;;;14.45;100.00
50430;BME280;36359;41.556;-8.418;2022-11-11T02:03:10;100808.81;;;14.18;100.00
50430;BME280;36359;41.556;-8.418;2022-11-11T02:05:56;100821.44;;;14.19;100.00
50430;BME280;36359;41.556;-8.418;2022-11-11T02:08:41;100816.56;;;14.05;100.00
50430;BME280;36359;41.556;-8.418;2022-11-11T02:11:27;100815.38;;;14.34;100.00
50430;BME280;36359;41.556;-8.418;2022-11-11T02:14:43;100811.13;;;14.05;100.00
50430;BME280;36359;41.556;-8.418;2022-11-11T02:17:30;100808.56;;;14.29;100.00
50430;BME280;36359;41.556;-8.418;2022-11-11T02:20:20;100803.25;;;14.02;100.00
50430;BME280;36359;41.556;-8.418;2022-11-11T02:25:53;100799.72;;;13.83;100.00
50430;BME280;36359;41.556;-8.418;2022-11-11T02:28:40;100796.75;;;13.95;100.00
50430;BME280;36359;41.556;-8.418;2022-11-11T02:31:27;100795.97;;;14.11;100.00
50430;BME280;36359;41.556;-8.418;2022-11-11T02:34:11;100790.69;;;14.09;100.00
50430;BME280;36359;41.556;-8.418;2022-11-11T02:36:56;100790.00;;;14.07;100.00
50430;BME280;36359;41.556;-8.418;2022-11-11T02:39:44;100792.97;;;13.96;100.00
50430;BME280;36359;41.556;-8.418;2022-11-11T02:42:29;100777.41;;;13.88;100.00
50430;BME280;36359;41.556;-8.418;2022-11-11T02:45:13;100775.88;;;13.85;100.00
50430;BME280;36359;41.556;-8.418;2022-11-11T02:47:58;100772.72;;;13.72;100.00
50430;BME280;36359;41.556;-8.418;2022-11-11T02:50:42;100766.47;;;13.80;100.00
50430;BME280;36359;41.556;-8.418;2022-11-11T02:53:27;100757.38;;;13.97;100.00
50430;BME280;36359;41.556;-8.418;2022-11-11T02:56:11;100754.91;;;14.12;100.00
50430;BME280;36359;41.556;-8.418;2022-11-11T02:59:15;100750.19;;;13.96;100.00
50430;BME280;36359;41.556;-8.418;2022-11-11T03:02:00;100743.84;;;14.22;100.00
50430;BME280;36359;41.556;-8.418;2022-11-11T03:04:44;100739.91;;;14.16;100.00
50430;BME280;36359;41.556;-8.418;2022-11-11T03:07:28;100742.91;;;14.05;100.00
50430;BME280;36359;41.556;-8.418;2022-11-11T03:10:13;100737.38;;;13.89;100.00
50430;BME280;36359;41.556;-8.418;2022-11-11T03:12:57;100740.31;;;13.95;100.00
50430;BME280;36359;41.556;-8.418;2022-11-11T03:15:42;100742.28;;;13.85;100.00
50430;BME280;36359;41.556;-8.418;2022-11-11T03:18:25;100730.25;;;13.70;100.00
50430;BME280;36359;41.556;-8.418;2022-11-11T03:21:10;100740.56;;;13.58;100.00
50430;BME280;36359;41.556;-8.418;2022-11-11T03:23:54;100745.03;;;13.59;100.00
50430;BME280;36359;41.556;-8.418;2022-11-11T03:26:38;100730.63;;;13.49;100.00
50430;BME280;36359;41.556;-8.418;2022-11-11T03:29:23;100724.47;;;13.47;100.00
50430;BME280;36359;41.556;-8.418;2022-11-11T03:32:08;100720.66;;;13.39;100.00
50430;BME280;36359;41.556;-8.418;2022-11-11T03:34:52;100710.50;;;13.50;100.00
50430;BME280;36359;41.556;-8.418;2022-11-11T03:37:36;100713.56;;;13.47;100.00
50430;BME280;36359;41.556;-8.418;2022-11-11T03:40:39;100708.28;;;13.45;100.00
50430;BME280;36359;41.556;-8.418;2022-11-11T03:43:32;100705.75;;;13.52;100.00
50430;BME280;36359;41.556;-8.418;2022-11-11T03:46:17;100705.22;;;13.48;99.98
50430;BME280;36359;41.556;-8.418;2022-11-11T03:49:01;100716.53;;;13.53;100.00
50430;BME280;36359;41.556;-8.418;2022-11-11T03:51:45;100701.88;;;13.80;100.00
50430;BME280;36359;41.556;-8.418;2022-11-11T03:54:29;100703.09;;;13.86;100.00
50430;BME280;36359;41.556;-8.418;2022-11-11T03:57:13;100705.28;;;13.82;98.78
50430;BME280;36359;41.556;-8.418;2022-11-11T04:00:27;100702.91;;;13.88;98.96
50430;BME280;36359;41.556;-8.418;2022-11-11T04:03:15;100700.59;;;14.01;99.27
50430;BME280;36359;41.556;-8.418;2022-11-11T04:06:18;100694.44;;;13.99;97.66
50430;BME280;36359;41.556;-8.418;2022-11-11T04:09:21;100704.69;;;14.05;95.60
50430;BME280;36359;41.556;-8.418;2022-11-11T04:12:25;100707.63;;;14.12;97.94
50430;BME280;36359;41.556;-8.418;2022-11-11T04:15:09;100700.66;;;14.09;98.15
50430;BME280;36359;41.556;-8.418;2022-11-11T04:18:12;100697.22;;;14.07;100.00
50430;BME280;36359;41.556;-8.418;2022-11-11T04:20:57;100697.13;;;13.91;97.65
50430;BME280;36359;41.556;-8.418;2022-11-11T04:24:00;100696.31;;;13.98;97.72
50430;BME280;36359;41.556;-8.418;2022-11-11T04:26:44;100701.72;;;13.90;99.30
50430;BME280;36359;41.556;-8.418;2022-11-11T04:29:29;100698.63;;;13.85;96.47
50430;BME280;36359;41.556;-8.418;2022-11-11T04:32:16;100707.47;;;14.13;100.00
50430;BME280;36359;41.556;-8.418;2022-11-11T04:35:19;100693.88;;;14.21;100.00
50430;BME280;36359;41.556;-8.418;2022-11-11T04:38:03;100707.44;;;14.05;99.15
50430;BME280;36359;41.556;-8.418;2022-11-11T04:41:05;100702.38;;;13.84;97.07
50430;BME280;36359;41.556;-8.418;2022-11-11T04:43:52;100709.78;;;13.92;97.67
50430;BME280;36359;41.556;-8.418;2022-11-11T04:46:54;100718.28;;;13.89;100.00
50430;BME280;36359;41.556;-8.418;2022-11-11T04:49:39;100706.88;;;13.67;98.37
50430;BME280;36359;41.556;-8.418;2022-11-11T04:52:24;100703.81;;;13.70;98.59
50430;BME280;36359;41.556;-8.418;2022-11-11T04:55:11;100714.16;;;13.58;97.21
50430;BME280;36359;41.556;-8.418;2022-11-11T04:58:16;100713.50;;;13.91;100.00
50430;BME280;36359;41.556;-8.418;2022-11-11T05:00:45;100714.47;;;13.81;98.04
50430;BME280;36359;41.556;-8.418;2022-11-11T05:03:29;100711.91;;;13.54;96.78
50430;BME280;36359;41.556;-8.418;2022-11-11T05:06:14;100713.28;;;13.84;100.00
50430;BME280;36359;41.556;-8.418;2022-11-11T05:09:17;100702.50;;;13.48;97.03
50430;BME280;36359;41.556;-8.418;2022-11-11T05:12:01;100700.38;;;13.60;98.39
50430;BME280;36359;41.556;-8.418;2022-11-11T05:14:46;100704.75;;;13.53;98.15
50430;BME280;36359;41.556;-8.418;2022-11-11T05:17:48;100702.44;;;13.66;99.18
50430;BME280;36359;41.556;-8.418;2022-11-11T05:20:51;100707.31;;;13.54;95.43
50430;BME280;36359;41.556;-8.418;2022-11-11T05:23:54;100702.91;;;13.61;97.81
50430;BME280;36359;41.556;-8.418;2022-11-11T05:26:57;100702.72;;;13.55;96.78
50430;BME280;36359;41.556;-8.418;2022-11-11T05:29:42;100701.44;;;13.67;98.70
50430;BME280;36359;41.556;-8.418;2022-11-11T05:32:26;100700.56;;;13.67;96.84
50430;BME280;36359;41.556;-8.418;2022-11-11T05:35:11;100707.13;;;13.74;97.72
50430;BME280;36359;41.556;-8.418;2022-11-11T05:38:00;100700.25;;;13.70;95.29
50430;BME280;36359;41.556;-8.418;2022-11-11T05:41:03;100702.72;;;13.55;95.58
50430;BME280;36359;41.556;-8.418;2022-11-11T05:43:47;100699.34;;;13.61;96.93
50430;BME280;36359;41.556;-8.418;2022-11-11T05:46:32;100696.03;;;13.49;96.27
50430;BME280;36359;41.556;-8.418;2022-11-11T05:49:17;100695.63;;;13.62;96.44
50430;BME280;36359;41.556;-8.418;2022-11-11T05:52:02;100690.53;;;13.67;96.45
50430;BME280;36359;41.556;-8.418;2022-11-11T05:54:46;100690.56;;;13.75;97.79
50430;BME280;36359;41.556;-8.418;2022-11-11T05:57:30;100694.47;;;13.73;100.00
50430;BME280;36359;41.556;-8.418;2022-11-11T06:00:15;100693.16;;;13.77;97.61
50430;BME280;36359;41.556;-8.418;2022-11-11T06:03:04;100691.00;;;13.89;99.43
50430;BME280;36359;41.556;-8.418;2022-11-11T06:05:48;100692.06;;;13.70;95.43
50430;BME280;36359;41.556;-8.418;2022-11-11T06:08:33;100693.88;;;13.61;94.71
50430;BME280;36359;41.556;-8.418;2022-11-11T06:11:18;100691.50;;;13.58;96.54
50430;BME280;36359;41.556;-8.418;2022-11-11T06:14:03;100702.34;;;13.50;95.85
50430;BME280;36359;41.556;-8.418;2022-11-11T06:16:47;100701.97;;;13.45;96.55
50430;BME280;36359;41.556;-8.418;2022-11-11T06:19:32;100692.03;;;13.35;98.17
50430;BME280;36359;41.556;-8.418;2022-11-11T06:22:16;100692.50;;;13.31;98.56
50430;BME280;36359;41.556;-8.418;2022-11-11T06:25:24;100693.72;;;13.36;96.08
50430;BME280;36359;41.556;-8.418;2022-11-11T06:28:28;100689.66;;;13.40;96.62
50430;BME280;36359;41.556;-8.418;2022-11-11T06:31:20;100691.16;;;13.35;96.61
50430;BME280;36359;41.556;-8.418;2022-11-11T06:34:05;100683.53;;;13.38;98.07
50430;BME280;36359;41.556;-8.418;2022-11-11T06:36:49;100686.53;;;13.27;94.78
50430;BME280;36359;41.556;-8.418;2022-11-11T06:39:34;100689.59;;;13.32;97.67
50430;BME280;36359;41.556;-8.418;2022-11-11T06:42:18;100694.59;;;13.37;97.22
50430;BME280;36359;41.556;-8.418;2022-11-11T06:45:02;100690.81;;;13.30;98.67
50430;BME280;36359;41.556;-8.418;2022-11-11T06:47:47;100691.16;;;13.35;96.20
50430;BME280;36359;41.556;-8.418;2022-11-11T06:50:32;100687.31;;;13.46;98.03
50430;BME280;36359;41.556;-8.418;2022-11-11T06:53:18;100691.94;;;13.45;95.11
50430;BME280;36359;41.556;-8.418;2022-11-11T06:56:02;100692.03;;;13.35;94.69
50430;BME280;36359;41.556;-8.418;2022-11-11T06:58:47;100688.28;;;13.62;97.93
50430;BME280;36359;41.556;-8.418;2022-11-11T07:01:29;100687.13;;;13.65;99.85
50430;BME280;36359;41.556;-8.418;2022-11-11T07:04:14;100685.38;;;13.64;94.92
50430;BME280;36359;41.556;-8.418;2022-11-11T07:06:58;100684.16;;;13.58;97.79
50430;BME280;36359;41.556;-8.418;2022-11-11T07:09:42;100697.19;;;13.47;93.83
50430;BME280;36359;41.556;-8.418;2022-11-11T07:12:27;100698.53;;;13.95;100.00
50430;BME280;36359;41.556;-8.418;2022-11-11T07:15:11;100704.72;;;13.71;96.30
50430;BME280;36359;41.556;-8.418;2022-11-11T07:17:56;100701.97;;;13.71;97.39
50430;BME280;36359;41.556;-8.418;2022-11-11T07:20:40;100702.66;;;13.73;97.03
50430;BME280;36359;41.556;-8.418;2022-11-11T07:23:25;100706.03;;;13.67;96.47
50430;BME280;36359;41.556;-8.418;2022-11-11T07:26:09;100711.59;;;13.57;93.56
50430;BME280;36359;41.556;-8.418;2022-11-11T07:28:53;100707.69;;;13.85;100.00
50430;BME280;36359;41.556;-8.418;2022-11-11T07:31:38;100715.47;;;14.06;99.76
50430;BME280;36359;41.556;-8.418;2022-11-11T07:34:23;100716.31;;;14.07;99.54
50430;BME280;36359;41.556;-8.418;2022-11-11T07:37:07;100722.59;;;13.99;95.27
50430;BME280;36359;41.556;-8.418;2022-11-11T07:39:51;100729.16;;;14.23;100.00
50430;BME280;36359;41.556;-8.418;2022-11-11T07:42:40;100722.50;;;13.83;95.70
50430;BME280;36359;41.556;-8.418;2022-11-11T07:45:24;100727.38;;;13.71;97.77
50430;BME280;36359;41.556;-8.418;2022-11-11T07:48:09;100729.88;;;13.91;95.87
50430;BME280;36359;41.556;-8.418;2022-11-11T07:50:53;100738.69;;;13.84;93.02
50430;BME280;36359;41.556;-8.418;2022-11-11T07:53:38;100727.38;;;13.97;95.74
50430;BME280;36359;41.556;-8.418;2022-11-11T07:56:22;100734.78;;;13.87;93.37
50430;BME280;36359;41.556;-8.418;2022-11-11T07:59:06;100744.00;;;13.86;90.05
50430;BME280;36359;41.556;-8.418;2022-11-11T08:01:51;100738.03;;;13.82;90.50
50430;BME280;36359;41.556;-8.418;2022-11-11T08:04:36;100733.28;;;13.93;94.71
50430;BME280;36359;41.556;-8.418;2022-11-11T08:07:20;100737.38;;;13.89;94.18
50430;BME280;36359;41.556;-8.418;2022-11-11T08:10:05;100739.19;;;14.06;93.63
50430;BME280;36359;41.556;-8.418;2022-11-11T08:12:53;100744.78;;;13.78;91.01
50430;BME280;36359;41.556;-8.418;2022-11-11T08:15:56;100743.34;;;13.92;91.01
50430;BME280;36359;41.556;-8.418;2022-11-11T08:18:41;100747.47;;;13.96;91.77
50430;BME280;36359;41.556;-8.418;2022-11-11T08:21:25;100756.50;;;13.97;91.10
50430;BME280;36359;41.556;-8.418;2022-11-11T08:24:10;100761.81;;;14.32;98.42
50430;BME280;36359;41.556;-8.418;2022-11-11T08:26:55;100753.41;;;14.18;89.84
50430;BME280;36359;41.556;-8.418;2022-11-11T08:32:31;100764.16;;;14.53;86.03
50430;BME280;36359;41.556;-8.418;2022-11-11T08:35:15;100756.59;;;14.47;87.34
50430;BME280;36359;41.556;-8.418;2022-11-11T08:38:02;100756.97;;;14.26;86.52
50430;BME280;36359;41.556;-8.418;2022-11-11T08:40:47;100753.78;;;14.31;89.84
50430;BME280;36359;41.556;-8.418;2022-11-11T08:43:32;100761.84;;;14.41;88.32
50430;BME280;36359;41.556;-8.418;2022-11-11T08:46:17;100753.88;;;14.47;91.31
50430;BME280;36359;41.556;-8.418;2022-11-11T08:49:01;100753.31;;;14.44;89.41
50430;BME280;36359;41.556;-8.418;2022-11-11T08:51:45;100763.00;;;14.72;91.48
50430;BME280;36359;41.556;-8.418;2022-11-11T08:54:31;100754.78;;;14.64;88.52
50430;BME280;36359;41.556;-8.418;2022-11-11T08:57:16;100764.00;;;14.63;87.13
50430;BME280;36359;41.556;-8.418;2022-11-11T09:00:02;100765.91;;;14.79;89.68
50430;BME280;36359;41.556;-8.418;2022-11-11T09:02:47;100775.63;;;14.73;87.11
50430;BME280;36359;41.556;-8.418;2022-11-11T09:05:32;100773.28;;;14.87;88.78
50430;BME280;36359;41.556;-8.418;2022-11-11T09:08:17;100762.72;;;14.92;86.21
50430;BME280;36359;41.556;-8.418;2022-11-11T09:11:01;100768.34;;;14.90;85.31
50430;BME280;36359;41.556;-8.418;2022-11-11T09:13:46;100775.00;;;14.96;85.75
50430;BME280;36359;41.556;-8.418;2022-11-11T09:16:30;100775.88;;;14.96;86.55
50430;BME280;36359;41.556;-8.418;2022-11-11T09:19:15;100778.47;;;15.06;86.74
50430;BME280;36359;41.556;-8.418;2022-11-11T09:22:00;100781.53;;;15.19;87.06
50430;BME280;36359;41.556;-8.418;2022-11-11T09:24:45;100776.41;;;15.16;88.88
50430;BME280;36359;41.556;-8.418;2022-11-11T09:27:30;100772.00;;;15.24;85.95
50430;BME280;36359;41.556;-8.418;2022-11-11T09:30:14;100773.03;;;15.31;83.17
50430;BME280;36359;41.556;-8.418;2022-11-11T09:33:03;100774.72;;;15.32;83.50
50430;BME280;36359;41.556;-8.418;2022-11-11T09:35:47;100782.44;;;15.44;85.40
50430;BME280;36359;41.556;-8.418;2022-11-11T09:38:31;100779.53;;;15.54;83.71
50430;BME280;36359;41.556;-8.418;2022-11-11T09:41:19;100772.84;;;15.57;79.98
50430;BME280;36359;41.556;-8.418;2022-11-11T09:44:04;100764.47;;;15.66;85.88
50430;BME280;36359;41.556;-8.418;2022-11-11T09:47:20;100769.13;;;15.74;86.00
50430;BME280;36359;41.556;-8.418;2022-11-11T09:50:12;100761.75;;;15.83;86.83
50430;BME280;36359;41.556;-8.418;2022-11-11T09:53:17;100762.44;;;15.77;82.40
50430;BME280;36359;41.556;-8.418;2022-11-11T09:56:10;100765.81;;;16.03;87.59
50430;BME280;36359;41.556;-8.418;2022-11-11T09:59:15;100757.97;;;16.00;81.58
50430;BME280;36359;41.556;-8.418;2022-11-11T10:02:03;100756.25;;;15.91;78.18
50430;BME280;36359;41.556;-8.418;2022-11-11T10:05:07;100759.31;;;16.04;84.97
50430;BME280;36359;41.556;-8.418;2022-11-11T10:07:59;100751.44;;;16.09;82.91
50430;BME280;36359;41.556;-8.418;2022-11-11T10:10:48;100753.63;;;16.14;81.78
50430;BME280;36359;41.556;-8.418;2022-11-11T10:13:35;100755.50;;;16.22;84.46
50430;BME280;36359;41.556;-8.418;2022-11-11T10:19:54;100750.25;;;16.43;83.48
50430;BME280;36359;41.556;-8.418;2022-11-11T10:22:42;100756.34;;;16.62;83.40
50430;BME280;36359;41.556;-8.418;2022-11-11T10:25:28;100741.91;;;16.76;75.44
50430;BME280;36359;41.556;-8.418;2022-11-11T10:28:16;100749.97;;;16.77;78.73
50430;BME280;36359;41.556;-8.418;2022-11-11T10:31:04;100751.78;;;16.85;73.25
50430;BME280;36359;41.556;-8.418;2022-11-11T10:34:03;100740.66;;;16.87;73.60
50430;BME280;36359;41.556;-8.418;2022-11-11T10:36:52;100745.53;;;16.99;70.39
50430;BME280;36359;41.556;-8.418;2022-11-11T10:42:46;100738.16;;;17.23;66.26
50430;BME280;36359;41.556;-8.418;2022-11-11T10:48:32;100732.75;;;17.15;68.05
50430;BME280;36359;41.556;-8.418;2022-11-11T10:51:21;100734.78;;;17.21;70.05
50430;BME280;36359;41.556;-8.418;2022-11-11T10:54:13;100735.84;;;17.35;65.34
50430;BME280;36359;41.556;-8.418;2022-11-11T10:57:17;100725.72;;;17.35;64.93
50430;BME280;36359;41.556;-8.418;2022-11-11T11:00:08;100726.88;;;17.41;65.70
50430;BME280;36359;41.556;-8.418;2022-11-11T11:08:53;100731.53;;;17.78;64.44
50430;BME280;36359;41.556;-8.418;2022-11-11T11:11:48;100720.56;;;17.78;65.27
50430;BME280;36359;41.556;-8.418;2022-11-11T11:14:44;100718.59;;;17.64;65.89
50430;BME280;36359;41.556;-8.418;2022-11-11T11:17:48;100709.19;;;17.81;68.07
50430;BME280;36359;41.556;-8.418;2022-11-11T11:20:35;100708.72;;;17.78;67.15
50430;BME280;36359;41.556;-8.418;2022-11-11T11:23:40;100712.03;;;18.03;64.84
50430;BME280;36359;41.556;-8.418;2022-11-11T11:26:42;100699.06;;;18.11;64.75
50430;BME280;36359;41.556;-8.418;2022-11-11T11:29:39;100687.13;;;18.19;67.74
50430;BME280;36359;41.556;-8.418;2022-11-11T11:32:30;100682.41;;;18.28;61.50
50430;BME280;36359;41.556;-8.418;2022-11-11T11:35:47;100680.00;;;18.39;60.67
50430;BME280;36359;41.556;-8.418;2022-11-11T11:38:42;100686.63;;;18.45;61.21
50430;BME280;36359;41.556;-8.418;2022-11-11T11:41:41;100678.56;;;18.44;59.05
50430;BME280;36359;41.556;-8.418;2022-11-11T11:44:34;100670.22;;;18.52;58.94
50430;BME280;36359;41.556;-8.418;2022-11-11T11:47:57;100681.88;;;18.54;61.16
50430;BME280;36359;41.556;-8.418;2022-11-11T11:50:55;100670.56;;;18.64;59.70
50430;BME280;36359;41.556;-8.418;2022-11-11T11:54:04;100662.13;;;18.65;63.76
50430;BME280;36359;41.556;-8.418;2022-11-11T11:56:57;100664.06;;;18.50;59.61
50430;BME280;36359;41.556;-8.418;2022-11-11T11:59:57;100662.19;;;18.50;59.14
50430;BME280;36359;41.556;-8.418;2022-11-11T12:06:13;100650.81;;;18.53;61.65
50430;BME280;36359;41.556;-8.418;2022-11-11T12:18:36;100636.97;;;18.83;64.02
50430;BME280;36359;41.556;-8.418;2022-11-11T12:21:21;100638.03;;;19.03;58.74
50430;BME280;36359;41.556;-8.418;2022-11-11T12:27:35;100618.56;;;19.05;59.02
50430;BME280;36359;41.556;-8.418;2022-11-11T12:30:23;100612.97;;;18.92;58.40
50430;BME280;36359;41.556;-8.418;2022-11-11T12:36:15;100621.34;;;19.12;65.12
50430;BME280;36359;41.556;-8.418;2022-11-11T12:45:03;100599.84;;;18.94;59.83
50430;BME280;36359;41.556;-8.418;2022-11-11T12:57:16;100590.78;;;19.21;55.64
50430;BME280;36359;41.556;-8.418;2022-11-11T13:00:23;100599.25;;;19.26;55.33
50430;BME280;36359;41.556;-8.418;2022-11-11T13:06:47;100587.38;;;19.19;55.84
50430;BME280;36359;41.556;-8.418;2022-11-11T13:12:40;100582.72;;;19.20;57.37
50430;BME280;36359;41.556;-8.418;2022-11-11T13:15:27;100589.47;;;19.17;55.74
50430;BME280;36359;41.556;-8.418;2022-11-11T13:18:18;100579.25;;;19.11;65.11
50430;BME280;36359;41.556;-8.418;2022-11-11T13:21:07;100584.41;;;18.93;54.72
50430;BME280;36359;41.556;-8.418;2022-11-11T13:23:53;100577.44;;;18.97;55.29
50430;BME280;36359;41.556;-8.418;2022-11-11T13:26:42;100582.81;;;19.05;54.42
50430;BME280;36359;41.556;-8.418;2022-11-11T13:32:55;100574.59;;;19.12;56.02
50430;BME280;36359;41.556;-8.418;2022-11-11T13:35:46;100581.88;;;19.19;55.68
50430;BME280;36359;41.556;-8.418;2022-11-11T13:38:34;100577.91;;;19.28;56.98
50430;BME280;36359;41.556;-8.418;2022-11-11T13:41:33;100566.97;;;19.07;55.87
50430;BME280;36359;41.556;-8.418;2022-11-11T13:44:49;100573.44;;;19.21;58.48
50430;BME280;36359;41.556;-8.418;2022-11-11T13:47:43;100575.06;;;19.15;55.69
50430;BME280;36359;41.556;-8.418;2022-11-11T13:50:30;100573.56;;;19.13;65.70
50430;BME280;36359;41.556;-8.418;2022-11-11T13:53:26;100568.69;;;19.15;56.00
50430;BME280;36359;41.556;-8.418;2022-11-11T13:59:05;100564.00;;;19.37;54.88
50430;BME280;36359;41.556;-8.418;2022-11-11T14:07:53;100555.44;;;18.97;53.67
50430;BME280;36359;41.556;-8.418;2022-11-11T14:22:29;100550.34;;;18.94;57.30
50430;BME280;36359;41.556;-8.418;2022-11-11T14:25:27;100546.25;;;18.83;56.79
50430;BME280;36359;41.556;-8.418;2022-11-11T14:28:29;100540.06;;;18.74;56.38
50430;BME280;36359;41.556;-8.418;2022-11-11T14:34:15;100532.81;;;18.95;56.06
50430;BME280;36359;41.556;-8.418;2022-11-11T14:40:26;100525.41;;;18.95;55.96
50430;BME280;36359;41.556;-8.418;2022-11-11T14:43:34;100527.72;;;18.92;56.44
50430;BME280;36359;41.556;-8.418;2022-11-11T14:46:19;100534.66;;;18.88;56.47
50430;BME280;36359;41.556;-8.418;2022-11-11T14:49:04;100535.06;;;18.84;56.61
50430;BME280;36359;41.556;-8.418;2022-11-11T14:51:54;100533.31;;;18.77;56.07
50430;BME280;36359;41.556;-8.418;2022-11-11T14:54:56;100539.00;;;18.75;54.50
50430;BME280;36359;41.556;-8.418;2022-11-11T14:58:15;100532.84;;;18.73;55.22
50430;BME280;36359;41.556;-8.418;2022-11-11T15:01:15;100534.09;;;18.71;59.43
50430;BME280;36359;41.556;-8.418;2022-11-11T15:04:02;100539.56;;;18.71;55.93
50430;BME280;36359;41.556;-8.418;2022-11-11T15:07:00;100533.03;;;18.72;55.88
50430;BME280;36359;41.556;-8.418;2022-11-11T15:25:47;100525.50;;;18.80;55.50
50430;BME280;36359;41.556;-8.418;2022-11-11T15:37:21;100517.72;;;18.63;62.33
50430;BME280;36359;41.556;-8.418;2022-11-11T15:40:15;100520.72;;;18.68;56.89
50430;BME280;36359;41.556;-8.418;2022-11-11T15:43:02;100510.97;;;18.65;62.40
50430;BME280;36359;41.556;-8.418;2022-11-11T15:45:55;100516.47;;;18.65;56.99
50430;BME280;36359;41.556;-8.418;2022-11-11T15:48:42;100507.75;;;18.61;58.25
50430;BME280;36359;41.556;-8.418;2022-11-11T15:51:31;100507.38;;;18.65;57.24
50430;BME280;36359;41.556;-8.418;2022-11-11T15:57:26;100497.34;;;18.50;62.79
50430;BME280;36359;41.556;-8.418;2022-11-11T16:03:34;100489.63;;;18.39;60.57
50430;BME280;36359;41.556;-8.418;2022-11-11T16:06:23;100490.84;;;18.36;59.99
50430;BME280;36359;41.556;-8.418;2022-11-11T16:09:09;100490.97;;;18.50;59.95
50430;BME280;36359;41.556;-8.418;2022-11-11T16:11:56;100487.75;;;18.46;60.45
50430;BME280;36359;41.556;-8.418;2022-11-11T16:14:42;100484.56;;;18.43;61.13
50430;BME280;36359;41.556;-8.418;2022-11-11T16:17:37;100483.91;;;18.41;60.98
50430;BME280;36359;41.556;-8.418;2022-11-11T16:20:44;100483.00;;;18.33;61.01
50430;BME280;36359;41.556;-8.418;2022-11-11T16:23:30;100479.59;;;18.31;60.74
50430;BME280;36359;41.556;-8.418;2022-11-11T16:26:15;100483.78;;;18.27;61.37
50430;BME280;36359;41.556;-8.418;2022-11-11T16:29:00;100484.19;;;18.24;62.41
50430;BME280;36359;41.556;-8.418;2022-11-11T16:31:45;100482.88;;;18.20;61.07
50430;BME280;36359;41.556;-8.418;2022-11-11T16:37:15;100492.00;;;18.06;62.51
50430;BME280;36359;41.556;-8.418;2022-11-11T16:40:33;100490.44;;;17.97;65.16
50430;BME280;36359;41.556;-8.418;2022-11-11T16:43:20;100497.69;;;17.83;63.83